sensor_id;sensor_type;location;lat;lon;timestamp;P1;durP1;ratioP1;P2;durP2;ratioP2
14342;SDS011;7255;53.596;9.960;2023-07-29T00:01:53;5.87;;;3.87;;
14342;SDS011;7255;53.596;9.960;2023-07-29T00:04:19;4.65;;;3.80;;
14342;SDS011;7255;53.596;9.960;2023-07-29T00:06:46;5.10;;;4.53;;
14342;SDS011;7255;53.596;9.960;2023-07-29T00:09:12;5.03;;;4.53;;
14342;SDS011;7255;53.596;9.960;2023-07-29T00:11:39;6.12;;;4.18;;
14342;SDS011;7255;53.596;9.960;2023-07-29T00:14:06;4.87;;;4.15;;
14342;SDS011;7255;53.596;9.960;2023-07-29T00:16:32;4.53;;;3.67;;
14342;SDS011;7255;53.596;9.960;2023-07-29T00:18:58;5.12;;;3.30;;
14342;SDS011;7255;53.596;9.960;2023-07-29T00:21:25;5.28;;;3.42;;
14342;SDS011;7255;53.596;9.960;2023-07-29T00:23:51;4.43;;;3.72;;
14342;SDS011;7255;53.596;9.960;2023-07-29T00:26:18;3.65;;;3.20;;
14342;SDS011;7255;53.596;9.960;2023-07-29T00:28:46;4.87;;;3.90;;
14342;SDS011;7255;53.596;9.960;2023-07-29T00:31:12;5.10;;;3.95;;
14342;SDS011;7255;53.596;9.960;2023-07-29T00:33:39;4.45;;;3.35;;
14342;SDS011;7255;53.596;9.960;2023-07-29T00:36:05;4.68;;;3.75;;
14342;SDS011;7255;53.596;9.960;2023-07-29T00:38:31;4.93;;;3.92;;
14342;SDS011;7255;53.596;9.960;2023-07-29T00:40:58;4.10;;;3.70;;
14342;SDS011;7255;53.596;9.960;2023-07-29T00:43:25;4.65;;;3.60;;
14342;SDS011;7255;53.596;9.960;2023-07-29T00:45:52;6.10;;;3.83;;
14342;SDS011;7255;53.596;9.960;2023-07-29T00:48:19;6.35;;;3.92;;
14342;SDS011;7255;53.596;9.960;2023-07-29T00:50:45;5.45;;;3.67;;
14342;SDS011;7255;53.596;9.960;2023-07-29T00:53:12;5.10;;;4.15;;
14342;SDS011;7255;53.596;9.960;2023-07-29T00:55:38;4.62;;;4.00;;
14342;SDS011;7255;53.596;9.960;2023-07-29T00:58:04;4.87;;;4.00;;
14342;SDS011;7255;53.596;9.960;2023-07-29T01:00:31;7.05;;;4.87;;
14342;SDS011;7255;53.596;9.960;2023-07-29T01:02:58;5.75;;;3.83;;
14342;SDS011;7255;53.596;9.960;2023-07-29T01:05:25;6.05;;;4.30;;
14342;SDS011;7255;53.596;9.960;2023-07-29T01:07:56;6.32;;;3.65;;
14342;SDS011;7255;53.596;9.960;2023-07-29T01:10:30;5.40;;;3.65;;
14342;SDS011;7255;53.596;9.960;2023-07-29T01:13:06;5.60;;;4.12;;
14342;SDS011;7255;53.596;9.960;2023-07-29T01:15:40;5.10;;;3.87;;
14342;SDS011;7255;53.596;9.960;2023-07-29T01:18:13;4.60;;;4.05;;
14342;SDS011;7255;53.596;9.960;2023-07-29T01:20:44;6.72;;;4.28;;
14342;SDS011;7255;53.596;9.960;2023-07-29T01:23:14;5.65;;;4.60;;
14342;SDS011;7255;53.596;9.960;2023-07-29T01:25:43;7.62;;;4.32;;
14342;SDS011;7255;53.596;9.960;2023-07-29T01:28:09;8.52;;;4.47;;
14342;SDS011;7255;53.596;9.960;2023-07-29T01:30:38;5.25;;;4.07;;
14342;SDS011;7255;53.596;9.960;2023-07-29T01:33:07;4.93;;;4.43;;
14342;SDS011;7255;53.596;9.960;2023-07-29T01:35:40;6.45;;;4.07;;
14342;SDS011;7255;53.596;9.960;2023-07-29T01:38:09;5.53;;;4.28;;
14342;SDS011;7255;53.596;9.960;2023-07-29T01:40:40;4.47;;;3.97;;
14342;SDS011;7255;53.596;9.960;2023-07-29T01:43:09;5.70;;;4.37;;
14342;SDS011;7255;53.596;9.960;2023-07-29T01:45:36;5.30;;;4.18;;
14342;SDS011;7255;53.596;9.960;2023-07-29T01:48:03;5.28;;;4.25;;
14342;SDS011;7255;53.596;9.960;2023-07-29T01:50:30;5.00;;;4.10;;
14342;SDS011;7255;53.596;9.960;2023-07-29T01:52:57;6.55;;;4.40;;
14342;SDS011;7255;53.596;9.960;2023-07-29T01:55:23;6.68;;;4.62;;
14342;SDS011;7255;53.596;9.960;2023-07-29T01:57:50;6.82;;;4.60;;
14342;SDS011;7255;53.596;9.960;2023-07-29T02:00:18;7.75;;;4.85;;
14342;SDS011;7255;53.596;9.960;2023-07-29T02:02:45;7.60;;;4.05;;
14342;SDS011;7255;53.596;9.960;2023-07-29T02:05:11;6.05;;;4.78;;
14342;SDS011;7255;53.596;9.960;2023-07-29T02:07:38;7.62;;;5.47;;
14342;SDS011;7255;53.596;9.960;2023-07-29T02:10:04;9.30;;;5.85;;
14342;SDS011;7255;53.596;9.960;2023-07-29T02:12:31;8.43;;;5.22;;
14342;SDS011;7255;53.596;9.960;2023-07-29T02:14:57;6.68;;;5.40;;
14342;SDS011;7255;53.596;9.960;2023-07-29T02:17:25;6.62;;;5.80;;
14342;SDS011;7255;53.596;9.960;2023-07-29T02:19:52;8.20;;;5.53;;
14342;SDS011;7255;53.596;9.960;2023-07-29T02:22:18;10.45;;;5.72;;
14342;SDS011;7255;53.596;9.960;2023-07-29T02:24:44;8.25;;;6.05;;
14342;SDS011;7255;53.596;9.960;2023-07-29T02:27:11;6.65;;;5.30;;
14342;SDS011;7255;53.596;9.960;2023-07-29T02:29:37;8.35;;;5.78;;
14342;SDS011;7255;53.596;9.960;2023-07-29T02:32:03;7.75;;;5.32;;
14342;SDS011;7255;53.596;9.960;2023-07-29T02:34:31;10.38;;;6.93;;
14342;SDS011;7255;53.596;9.960;2023-07-29T02:36:57;8.23;;;6.47;;
14342;SDS011;7255;53.596;9.960;2023-07-29T02:39:24;8.68;;;6.45;;
14342;SDS011;7255;53.596;9.960;2023-07-29T02:41:50;8.07;;;6.85;;
14342;SDS011;7255;53.596;9.960;2023-07-29T02:44:17;7.93;;;6.82;;
14342;SDS011;7255;53.596;9.960;2023-07-29T02:46:44;9.85;;;7.00;;
14342;SDS011;7255;53.596;9.960;2023-07-29T02:49:10;8.55;;;6.85;;
14342;SDS011;7255;53.596;9.960;2023-07-29T02:51:38;8.35;;;6.45;;
14342;SDS011;7255;53.596;9.960;2023-07-29T02:54:04;8.60;;;7.25;;
14342;SDS011;7255;53.596;9.960;2023-07-29T02:56:31;8.23;;;6.60;;
14342;SDS011;7255;53.596;9.960;2023-07-29T02:58:57;10.02;;;7.50;;
14342;SDS011;7255;53.596;9.960;2023-07-29T03:01:23;7.65;;;6.85;;
14342;SDS011;7255;53.596;9.960;2023-07-29T03:03:50;11.52;;;7.57;;
14342;SDS011;7255;53.596;9.960;2023-07-29T03:06:17;8.85;;;7.10;;
14342;SDS011;7255;53.596;9.960;2023-07-29T03:08:45;9.00;;;6.78;;
14342;SDS011;7255;53.596;9.960;2023-07-29T03:11:12;8.30;;;7.03;;
14342;SDS011;7255;53.596;9.960;2023-07-29T03:13:40;7.50;;;6.70;;
14342;SDS011;7255;53.596;9.960;2023-07-29T03:16:07;8.55;;;7.32;;
14342;SDS011;7255;53.596;9.960;2023-07-29T03:18:34;8.50;;;7.05;;
14342;SDS011;7255;53.596;9.960;2023-07-29T03:21:00;8.88;;;7.03;;
14342;SDS011;7255;53.596;9.960;2023-07-29T03:23:28;9.45;;;7.07;;
14342;SDS011;7255;53.596;9.960;2023-07-29T03:25:56;10.32;;;7.30;;
14342;SDS011;7255;53.596;9.960;2023-07-29T03:28:23;8.13;;;6.80;;
14342;SDS011;7255;53.596;9.960;2023-07-29T03:30:50;9.55;;;7.18;;
14342;SDS011;7255;53.596;9.960;2023-07-29T03:33:16;10.25;;;7.70;;
14342;SDS011;7255;53.596;9.960;2023-07-29T03:35:42;9.48;;;7.70;;
14342;SDS011;7255;53.596;9.960;2023-07-29T03:38:09;8.25;;;7.32;;
14342;SDS011;7255;53.596;9.960;2023-07-29T03:40:36;12.95;;;8.95;;
14342;SDS011;7255;53.596;9.960;2023-07-29T03:43:03;10.32;;;7.10;;
14342;SDS011;7255;53.596;9.960;2023-07-29T03:45:30;8.25;;;6.70;;
14342;SDS011;7255;53.596;9.960;2023-07-29T03:47:56;10.52;;;7.55;;
14342;SDS011;7255;53.596;9.960;2023-07-29T03:50:22;9.10;;;7.60;;
14342;SDS011;7255;53.596;9.960;2023-07-29T03:52:49;9.60;;;7.72;;
14342;SDS011;7255;53.596;9.960;2023-07-29T03:55:16;10.57;;;8.30;;
14342;SDS011;7255;53.596;9.960;2023-07-29T03:57:42;11.75;;;9.40;;
14342;SDS011;7255;53.596;9.960;2023-07-29T04:00:10;9.32;;;8.13;;
14342;SDS011;7255;53.596;9.960;2023-07-29T04:02:36;11.30;;;8.68;;
14342;SDS011;7255;53.596;9.960;2023-07-29T04:05:04;13.62;;;9.85;;
14342;SDS011;7255;53.596;9.960;2023-07-29T04:07:31;13.60;;;10.50;;
14342;SDS011;7255;53.596;9.960;2023-07-29T04:09:57;15.30;;;10.90;;
14342;SDS011;7255;53.596;9.960;2023-07-29T04:12:24;13.75;;;9.20;;
14342;SDS011;7255;53.596;9.960;2023-07-29T04:14:50;13.95;;;10.27;;
14342;SDS011;7255;53.596;9.960;2023-07-29T04:17:18;18.02;;;12.57;;
14342;SDS011;7255;53.596;9.960;2023-07-29T04:19:45;19.30;;;14.27;;
14342;SDS011;7255;53.596;9.960;2023-07-29T04:22:11;22.00;;;14.80;;
14342;SDS011;7255;53.596;9.960;2023-07-29T04:24:37;20.50;;;14.13;;
14342;SDS011;7255;53.596;9.960;2023-07-29T04:27:04;27.02;;;15.57;;
14342;SDS011;7255;53.596;9.960;2023-07-29T04:29:30;26.98;;;15.77;;
14342;SDS011;7255;53.596;9.960;2023-07-29T04:31:57;26.62;;;16.55;;
14342;SDS011;7255;53.596;9.960;2023-07-29T04:34:25;24.55;;;16.67;;
14342;SDS011;7255;53.596;9.960;2023-07-29T04:36:51;27.75;;;18.30;;
14342;SDS011;7255;53.596;9.960;2023-07-29T04:39:17;33.47;;;18.45;;
14342;SDS011;7255;53.596;9.960;2023-07-29T04:41:44;33.75;;;18.12;;
14342;SDS011;7255;53.596;9.960;2023-07-29T04:44:10;29.67;;;17.58;;
14342;SDS011;7255;53.596;9.960;2023-07-29T04:46:36;35.80;;;19.55;;
14342;SDS011;7255;53.596;9.960;2023-07-29T04:49:03;33.22;;;18.48;;
14342;SDS011;7255;53.596;9.960;2023-07-29T04:51:31;35.95;;;18.62;;
14342;SDS011;7255;53.596;9.960;2023-07-29T04:53:57;30.08;;;17.33;;
14342;SDS011;7255;53.596;9.960;2023-07-29T04:56:24;31.40;;;18.55;;
14342;SDS011;7255;53.596;9.960;2023-07-29T04:58:50;30.05;;;18.65;;
14342;SDS011;7255;53.596;9.960;2023-07-29T05:01:17;35.00;;;19.62;;
14342;SDS011;7255;53.596;9.960;2023-07-29T05:03:43;33.92;;;19.25;;
14342;SDS011;7255;53.596;9.960;2023-07-29T05:06:10;35.17;;;19.70;;
14342;SDS011;7255;53.596;9.960;2023-07-29T05:08:37;38.55;;;19.62;;
14342;SDS011;7255;53.596;9.960;2023-07-29T05:11:03;34.85;;;19.80;;
14342;SDS011;7255;53.596;9.960;2023-07-29T05:13:30;29.58;;;19.87;;
14342;SDS011;7255;53.596;9.960;2023-07-29T05:15:56;36.47;;;18.42;;
14342;SDS011;7255;53.596;9.960;2023-07-29T05:18:22;29.48;;;18.73;;
14342;SDS011;7255;53.596;9.960;2023-07-29T05:20:49;31.90;;;18.40;;
14342;SDS011;7255;53.596;9.960;2023-07-29T05:23:15;29.55;;;18.35;;
14342;SDS011;7255;53.596;9.960;2023-07-29T05:25:43;32.28;;;18.65;;
14342;SDS011;7255;53.596;9.960;2023-07-29T05:28:09;34.42;;;18.55;;
14342;SDS011;7255;53.596;9.960;2023-07-29T05:30:35;32.17;;;18.45;;
14342;SDS011;7255;53.596;9.960;2023-07-29T05:33:03;30.08;;;18.37;;
14342;SDS011;7255;53.596;9.960;2023-07-29T05:35:30;39.15;;;19.05;;
14342;SDS011;7255;53.596;9.960;2023-07-29T05:37:56;32.58;;;17.58;;
14342;SDS011;7255;53.596;9.960;2023-07-29T05:40:22;34.08;;;18.77;;
14342;SDS011;7255;53.596;9.960;2023-07-29T05:42:50;29.08;;;18.87;;
14342;SDS011;7255;53.596;9.960;2023-07-29T05:45:16;31.75;;;19.70;;
14342;SDS011;7255;53.596;9.960;2023-07-29T05:47:43;31.20;;;19.42;;
14342;SDS011;7255;53.596;9.960;2023-07-29T05:50:09;28.40;;;18.05;;
14342;SDS011;7255;53.596;9.960;2023-07-29T05:52:36;32.42;;;19.23;;
14342;SDS011;7255;53.596;9.960;2023-07-29T05:55:03;30.55;;;19.00;;
14342;SDS011;7255;53.596;9.960;2023-07-29T05:57:30;29.95;;;18.42;;
14342;SDS011;7255;53.596;9.960;2023-07-29T05:59:58;33.03;;;17.83;;
14342;SDS011;7255;53.596;9.960;2023-07-29T06:02:24;31.50;;;18.45;;
14342;SDS011;7255;53.596;9.960;2023-07-29T06:04:50;25.10;;;17.65;;
14342;SDS011;7255;53.596;9.960;2023-07-29T06:07:16;24.12;;;16.67;;
14342;SDS011;7255;53.596;9.960;2023-07-29T06:09:43;22.65;;;16.25;;
14342;SDS011;7255;53.596;9.960;2023-07-29T06:12:09;28.35;;;17.83;;
14342;SDS011;7255;53.596;9.960;2023-07-29T06:14:36;27.75;;;16.75;;
14342;SDS011;7255;53.596;9.960;2023-07-29T06:17:04;24.60;;;16.52;;
14342;SDS011;7255;53.596;9.960;2023-07-29T06:19:31;25.15;;;17.77;;
14342;SDS011;7255;53.596;9.960;2023-07-29T06:21:58;23.40;;;16.90;;
14342;SDS011;7255;53.596;9.960;2023-07-29T06:24:26;30.95;;;17.23;;
14342;SDS011;7255;53.596;9.960;2023-07-29T06:26:52;23.80;;;16.85;;
14342;SDS011;7255;53.596;9.960;2023-07-29T06:29:18;24.95;;;17.55;;
14342;SDS011;7255;53.596;9.960;2023-07-29T06:31:45;22.92;;;16.60;;
14342;SDS011;7255;53.596;9.960;2023-07-29T06:34:12;25.02;;;15.57;;
14342;SDS011;7255;53.596;9.960;2023-07-29T06:36:39;26.20;;;17.73;;
14342;SDS011;7255;53.596;9.960;2023-07-29T06:39:05;26.10;;;16.25;;
14342;SDS011;7255;53.596;9.960;2023-07-29T06:41:31;25.75;;;15.65;;
14342;SDS011;7255;53.596;9.960;2023-07-29T06:43:58;21.83;;;15.05;;
14342;SDS011;7255;53.596;9.960;2023-07-29T06:46:24;20.40;;;14.70;;
14342;SDS011;7255;53.596;9.960;2023-07-29T06:48:51;19.08;;;14.80;;
14342;SDS011;7255;53.596;9.960;2023-07-29T06:51:18;21.70;;;16.00;;
14342;SDS011;7255;53.596;9.960;2023-07-29T06:53:44;18.27;;;13.30;;
14342;SDS011;7255;53.596;9.960;2023-07-29T06:56:11;19.23;;;14.60;;
14342;SDS011;7255;53.596;9.960;2023-07-29T06:58:37;17.25;;;12.95;;
14342;SDS011;7255;53.596;9.960;2023-07-29T07:01:03;21.15;;;13.82;;
14342;SDS011;7255;53.596;9.960;2023-07-29T07:03:30;18.45;;;13.57;;
14342;SDS011;7255;53.596;9.960;2023-07-29T07:05:56;24.37;;;14.52;;
14342;SDS011;7255;53.596;9.960;2023-07-29T07:08:23;17.50;;;13.77;;
14342;SDS011;7255;53.596;9.960;2023-07-29T07:10:50;18.25;;;13.82;;
14342;SDS011;7255;53.596;9.960;2023-07-29T07:13:16;22.23;;;14.38;;
14342;SDS011;7255;53.596;9.960;2023-07-29T07:15:42;19.48;;;14.68;;
14342;SDS011;7255;53.596;9.960;2023-07-29T07:18:10;21.25;;;14.15;;
14342;SDS011;7255;53.596;9.960;2023-07-29T07:20:36;20.70;;;13.88;;
14342;SDS011;7255;53.596;9.960;2023-07-29T07:23:02;18.62;;;15.13;;
14342;SDS011;7255;53.596;9.960;2023-07-29T07:25:31;18.15;;;13.95;;
14342;SDS011;7255;53.596;9.960;2023-07-29T07:27:57;21.67;;;15.20;;
14342;SDS011;7255;53.596;9.960;2023-07-29T07:30:24;22.35;;;15.85;;
14342;SDS011;7255;53.596;9.960;2023-07-29T07:32:50;26.33;;;16.65;;
14342;SDS011;7255;53.596;9.960;2023-07-29T07:35:17;21.15;;;15.43;;
14342;SDS011;7255;53.596;9.960;2023-07-29T07:37:43;22.75;;;15.80;;
14342;SDS011;7255;53.596;9.960;2023-07-29T07:40:10;19.27;;;15.25;;
14342;SDS011;7255;53.596;9.960;2023-07-29T07:42:38;24.58;;;16.25;;
14342;SDS011;7255;53.596;9.960;2023-07-29T07:45:05;22.23;;;15.50;;
14342;SDS011;7255;53.596;9.960;2023-07-29T07:47:31;22.13;;;15.35;;
14342;SDS011;7255;53.596;9.960;2023-07-29T07:49:58;22.62;;;15.65;;
14342;SDS011;7255;53.596;9.960;2023-07-29T07:52:24;24.30;;;17.20;;
14342;SDS011;7255;53.596;9.960;2023-07-29T07:54:51;20.27;;;15.52;;
14342;SDS011;7255;53.596;9.960;2023-07-29T07:57:18;23.55;;;15.85;;
14342;SDS011;7255;53.596;9.960;2023-07-29T07:59:45;23.20;;;15.10;;
14342;SDS011;7255;53.596;9.960;2023-07-29T08:02:11;22.90;;;15.85;;
14342;SDS011;7255;53.596;9.960;2023-07-29T08:04:38;20.35;;;15.18;;
14342;SDS011;7255;53.596;9.960;2023-07-29T08:07:04;23.25;;;15.52;;
14342;SDS011;7255;53.596;9.960;2023-07-29T08:09:31;20.23;;;14.30;;
14342;SDS011;7255;53.596;9.960;2023-07-29T08:11:57;22.25;;;14.85;;
14342;SDS011;7255;53.596;9.960;2023-07-29T08:14:24;21.60;;;14.90;;
14342;SDS011;7255;53.596;9.960;2023-07-29T08:16:52;22.80;;;14.10;;
14342;SDS011;7255;53.596;9.960;2023-07-29T08:19:19;18.77;;;14.30;;
14342;SDS011;7255;53.596;9.960;2023-07-29T08:21:45;20.17;;;13.98;;
14342;SDS011;7255;53.596;9.960;2023-07-29T08:24:11;20.83;;;14.52;;
14342;SDS011;7255;53.596;9.960;2023-07-29T08:26:37;19.35;;;14.60;;
14342;SDS011;7255;53.596;9.960;2023-07-29T08:29:04;20.90;;;14.48;;
14342;SDS011;7255;53.596;9.960;2023-07-29T08:31:30;22.65;;;15.18;;
14342;SDS011;7255;53.596;9.960;2023-07-29T08:33:59;20.80;;;14.93;;
14342;SDS011;7255;53.596;9.960;2023-07-29T08:36:26;20.75;;;14.82;;
14342;SDS011;7255;53.596;9.960;2023-07-29T08:38:52;22.17;;;16.35;;
14342;SDS011;7255;53.596;9.960;2023-07-29T08:41:19;21.00;;;15.52;;
14342;SDS011;7255;53.596;9.960;2023-07-29T08:43:52;23.92;;;15.95;;
14342;SDS011;7255;53.596;9.960;2023-07-29T08:46:22;23.50;;;15.38;;
14342;SDS011;7255;53.596;9.960;2023-07-29T08:48:48;22.13;;;15.35;;
14342;SDS011;7255;53.596;9.960;2023-07-29T08:51:17;23.05;;;16.12;;
14342;SDS011;7255;53.596;9.960;2023-07-29T08:53:45;22.00;;;15.07;;
14342;SDS011;7255;53.596;9.960;2023-07-29T08:56:12;23.33;;;15.15;;
14342;SDS011;7255;53.596;9.960;2023-07-29T08:58:39;21.65;;;16.05;;
14342;SDS011;7255;53.596;9.960;2023-07-29T09:01:05;21.62;;;16.37;;
14342;SDS011;7255;53.596;9.960;2023-07-29T09:03:32;22.92;;;15.55;;
14342;SDS011;7255;53.596;9.960;2023-07-29T09:05:58;23.90;;;16.58;;
14342;SDS011;7255;53.596;9.960;2023-07-29T09:08:26;20.92;;;15.38;;
14342;SDS011;7255;53.596;9.960;2023-07-29T09:10:53;19.80;;;14.60;;
14342;SDS011;7255;53.596;9.960;2023-07-29T09:13:20;18.20;;;14.25;;
14342;SDS011;7255;53.596;9.960;2023-07-29T09:15:46;18.10;;;14.35;;
14342;SDS011;7255;53.596;9.960;2023-07-29T09:18:15;16.85;;;13.23;;
14342;SDS011;7255;53.596;9.960;2023-07-29T09:20:42;19.58;;;13.73;;
14342;SDS011;7255;53.596;9.960;2023-07-29T09:23:09;17.58;;;13.23;;
14342;SDS011;7255;53.596;9.960;2023-07-29T09:25:37;14.68;;;12.27;;
14342;SDS011;7255;53.596;9.960;2023-07-29T09:28:07;14.87;;;11.98;;
14342;SDS011;7255;53.596;9.960;2023-07-29T09:30:35;15.02;;;11.57;;
14342;SDS011;7255;53.596;9.960;2023-07-29T09:33:01;14.90;;;11.68;;
14342;SDS011;7255;53.596;9.960;2023-07-29T09:35:28;16.70;;;12.02;;
14342;SDS011;7255;53.596;9.960;2023-07-29T09:37:58;13.15;;;10.93;;
14342;SDS011;7255;53.596;9.960;2023-07-29T09:40:24;14.18;;;11.63;;
14342;SDS011;7255;53.596;9.960;2023-07-29T09:42:53;13.98;;;11.45;;
14342;SDS011;7255;53.596;9.960;2023-07-29T09:45:21;14.68;;;10.55;;
14342;SDS011;7255;53.596;9.960;2023-07-29T09:47:48;15.45;;;10.68;;
14342;SDS011;7255;53.596;9.960;2023-07-29T09:50:14;12.57;;;10.25;;
14342;SDS011;7255;53.596;9.960;2023-07-29T09:52:41;9.25;;;8.27;;
14342;SDS011;7255;53.596;9.960;2023-07-29T09:55:09;10.23;;;8.63;;
14342;SDS011;7255;53.596;9.960;2023-07-29T09:57:36;9.32;;;7.35;;
14342;SDS011;7255;53.596;9.960;2023-07-29T10:00:05;9.88;;;7.62;;
14342;SDS011;7255;53.596;9.960;2023-07-29T10:02:36;9.25;;;7.45;;
14342;SDS011;7255;53.596;9.960;2023-07-29T10:05:03;8.55;;;6.07;;
14342;SDS011;7255;53.596;9.960;2023-07-29T10:07:31;7.60;;;6.72;;
14342;SDS011;7255;53.596;9.960;2023-07-29T10:09:58;7.53;;;6.30;;
14342;SDS011;7255;53.596;9.960;2023-07-29T10:12:26;6.85;;;6.15;;
14342;SDS011;7255;53.596;9.960;2023-07-29T10:14:54;7.45;;;6.65;;
14342;SDS011;7255;53.596;9.960;2023-07-29T10:17:22;7.05;;;5.95;;
14342;SDS011;7255;53.596;9.960;2023-07-29T10:19:49;7.00;;;5.90;;
14342;SDS011;7255;53.596;9.960;2023-07-29T10:22:16;6.65;;;5.72;;
14342;SDS011;7255;53.596;9.960;2023-07-29T10:24:46;6.18;;;5.53;;
14342;SDS011;7255;53.596;9.960;2023-07-29T10:27:14;8.38;;;6.00;;
14342;SDS011;7255;53.596;9.960;2023-07-29T10:29:44;6.05;;;5.45;;
14342;SDS011;7255;53.596;9.960;2023-07-29T10:32:11;7.78;;;5.37;;
14342;SDS011;7255;53.596;9.960;2023-07-29T10:34:39;5.47;;;4.62;;
14342;SDS011;7255;53.596;9.960;2023-07-29T10:37:06;4.45;;;3.90;;
14342;SDS011;7255;53.596;9.960;2023-07-29T10:39:37;5.00;;;4.50;;
14342;SDS011;7255;53.596;9.960;2023-07-29T10:42:04;5.30;;;4.80;;
14342;SDS011;7255;53.596;9.960;2023-07-29T10:44:48;5.00;;;4.50;;
14342;SDS011;7255;53.596;9.960;2023-07-29T10:47:17;4.68;;;4.28;;
14342;SDS011;7255;53.596;9.960;2023-07-29T10:49:46;4.07;;;3.67;;
14342;SDS011;7255;53.596;9.960;2023-07-29T10:52:13;4.50;;;3.83;;
14342;SDS011;7255;53.596;9.960;2023-07-29T10:54:44;5.18;;;3.97;;
14342;SDS011;7255;53.596;9.960;2023-07-29T10:57:14;4.28;;;3.67;;
14342;SDS011;7255;53.596;9.960;2023-07-29T10:59:41;4.72;;;3.97;;
14342;SDS011;7255;53.596;9.960;2023-07-29T11:02:20;4.03;;;3.62;;
14342;SDS011;7255;53.596;9.960;2023-07-29T11:04:49;5.40;;;3.67;;
14342;SDS011;7255;53.596;9.960;2023-07-29T11:07:20;4.12;;;3.28;;
14342;SDS011;7255;53.596;9.960;2023-07-29T11:09:57;3.53;;;2.87;;
14342;SDS011;7255;53.596;9.960;2023-07-29T11:12:33;3.60;;;3.30;;
14342;SDS011;7255;53.596;9.960;2023-07-29T11:15:01;4.03;;;2.85;;
14342;SDS011;7255;53.596;9.960;2023-07-29T11:17:30;2.85;;;2.47;;
14342;SDS011;7255;53.596;9.960;2023-07-29T11:20:00;5.22;;;2.55;;
14342;SDS011;7255;53.596;9.960;2023-07-29T11:22:28;2.87;;;2.30;;
14342;SDS011;7255;53.596;9.960;2023-07-29T11:24:55;2.60;;;2.40;;
14342;SDS011;7255;53.596;9.960;2023-07-29T11:27:21;3.35;;;2.17;;
14342;SDS011;7255;53.596;9.960;2023-07-29T11:29:48;2.58;;;1.58;;
14342;SDS011;7255;53.596;9.960;2023-07-29T11:32:15;2.37;;;2.03;;
14342;SDS011;7255;53.596;9.960;2023-07-29T11:34:42;4.53;;;2.20;;
14342;SDS011;7255;53.596;9.960;2023-07-29T11:37:10;2.75;;;2.08;;
14342;SDS011;7255;53.596;9.960;2023-07-29T11:39:39;2.97;;;2.40;;
14342;SDS011;7255;53.596;9.960;2023-07-29T11:42:05;2.47;;;2.10;;
14342;SDS011;7255;53.596;9.960;2023-07-29T11:44:32;2.30;;;1.98;;
14342;SDS011;7255;53.596;9.960;2023-07-29T11:46:58;2.50;;;2.10;;
14342;SDS011;7255;53.596;9.960;2023-07-29T11:49:24;2.60;;;2.33;;
14342;SDS011;7255;53.596;9.960;2023-07-29T11:51:51;2.05;;;1.92;;
14342;SDS011;7255;53.596;9.960;2023-07-29T11:54:20;3.05;;;2.22;;
14342;SDS011;7255;53.596;9.960;2023-07-29T11:56:47;2.92;;;2.33;;
14342;SDS011;7255;53.596;9.960;2023-07-29T11:59:14;6.05;;;3.22;;
14342;SDS011;7255;53.596;9.960;2023-07-29T12:01:40;2.80;;;2.42;;
14342;SDS011;7255;53.596;9.960;2023-07-29T12:04:07;3.58;;;2.05;;
14342;SDS011;7255;53.596;9.960;2023-07-29T12:06:33;2.97;;;2.00;;
14342;SDS011;7255;53.596;9.960;2023-07-29T12:09:00;2.25;;;2.05;;
14342;SDS011;7255;53.596;9.960;2023-07-29T12:11:28;2.50;;;1.85;;
14342;SDS011;7255;53.596;9.960;2023-07-29T12:13:54;2.10;;;1.75;;
14342;SDS011;7255;53.596;9.960;2023-07-29T12:16:21;2.00;;;1.70;;
14342;SDS011;7255;53.596;9.960;2023-07-29T12:18:47;1.77;;;1.67;;
14342;SDS011;7255;53.596;9.960;2023-07-29T12:21:16;2.10;;;1.58;;
14342;SDS011;7255;53.596;9.960;2023-07-29T12:23:44;1.87;;;1.60;;
14342;SDS011;7255;53.596;9.960;2023-07-29T12:26:10;1.80;;;1.70;;
14342;SDS011;7255;53.596;9.960;2023-07-29T12:28:38;2.08;;;1.65;;
14342;SDS011;7255;53.596;9.960;2023-07-29T12:31:06;2.10;;;1.45;;
14342;SDS011;7255;53.596;9.960;2023-07-29T12:33:34;2.37;;;1.60;;
14342;SDS011;7255;53.596;9.960;2023-07-29T12:36:02;2.45;;;1.52;;
14342;SDS011;7255;53.596;9.960;2023-07-29T12:38:29;2.72;;;1.70;;
14342;SDS011;7255;53.596;9.960;2023-07-29T12:40:56;1.92;;;1.67;;
14342;SDS011;7255;53.596;9.960;2023-07-29T12:43:22;2.28;;;1.50;;
14342;SDS011;7255;53.596;9.960;2023-07-29T12:45:50;2.00;;;1.62;;
14342;SDS011;7255;53.596;9.960;2023-07-29T12:48:16;1.52;;;1.42;;
14342;SDS011;7255;53.596;9.960;2023-07-29T12:50:43;1.98;;;1.67;;
14342;SDS011;7255;53.596;9.960;2023-07-29T12:53:09;1.35;;;1.25;;
14342;SDS011;7255;53.596;9.960;2023-07-29T12:55:36;1.58;;;1.30;;
14342;SDS011;7255;53.596;9.960;2023-07-29T12:58:02;1.52;;;1.42;;
14342;SDS011;7255;53.596;9.960;2023-07-29T13:00:29;1.60;;;1.50;;
14342;SDS011;7255;53.596;9.960;2023-07-29T13:02:57;1.52;;;1.42;;
14342;SDS011;7255;53.596;9.960;2023-07-29T13:05:24;2.08;;;1.30;;
14342;SDS011;7255;53.596;9.960;2023-07-29T13:07:50;1.48;;;1.37;;
14342;SDS011;7255;53.596;9.960;2023-07-29T13:10:17;1.30;;;1.20;;
14342;SDS011;7255;53.596;9.960;2023-07-29T13:12:43;1.98;;;1.33;;
14342;SDS011;7255;53.596;9.960;2023-07-29T13:15:10;1.70;;;1.60;;
14342;SDS011;7255;53.596;9.960;2023-07-29T13:17:36;1.67;;;1.42;;
14342;SDS011;7255;53.596;9.960;2023-07-29T13:20:05;2.50;;;1.25;;
14342;SDS011;7255;53.596;9.960;2023-07-29T13:22:33;2.50;;;1.70;;
14342;SDS011;7255;53.596;9.960;2023-07-29T13:24:59;1.42;;;1.27;;
14342;SDS011;7255;53.596;9.960;2023-07-29T13:27:26;1.50;;;1.27;;
14342;SDS011;7255;53.596;9.960;2023-07-29T13:29:52;1.58;;;1.48;;
14342;SDS011;7255;53.596;9.960;2023-07-29T13:32:18;1.70;;;1.55;;
14342;SDS011;7255;53.596;9.960;2023-07-29T13:34:44;1.95;;;1.30;;
14342;SDS011;7255;53.596;9.960;2023-07-29T13:37:12;1.48;;;1.27;;
14342;SDS011;7255;53.596;9.960;2023-07-29T13:39:38;2.17;;;1.48;;
14342;SDS011;7255;53.596;9.960;2023-07-29T13:42:05;1.98;;;1.60;;
14342;SDS011;7255;53.596;9.960;2023-07-29T13:44:32;2.22;;;1.77;;
14342;SDS011;7255;53.596;9.960;2023-07-29T13:46:58;2.15;;;1.52;;
14342;SDS011;7255;53.596;9.960;2023-07-29T13:49:24;1.37;;;1.27;;
14342;SDS011;7255;53.596;9.960;2023-07-29T13:51:51;2.00;;;1.45;;
14342;SDS011;7255;53.596;9.960;2023-07-29T13:54:18;1.85;;;1.23;;
14342;SDS011;7255;53.596;9.960;2023-07-29T13:56:44;2.10;;;1.90;;
14342;SDS011;7255;53.596;9.960;2023-07-29T13:59:11;1.85;;;1.12;;
14342;SDS011;7255;53.596;9.960;2023-07-29T14:01:37;1.70;;;1.40;;
14342;SDS011;7255;53.596;9.960;2023-07-29T14:04:03;2.10;;;1.60;;
14342;SDS011;7255;53.596;9.960;2023-07-29T14:06:30;2.10;;;1.67;;
14342;SDS011;7255;53.596;9.960;2023-07-29T14:08:56;1.60;;;1.50;;
14342;SDS011;7255;53.596;9.960;2023-07-29T14:11:24;1.85;;;1.50;;
14342;SDS011;7255;53.596;9.960;2023-07-29T14:13:50;2.33;;;1.50;;
14342;SDS011;7255;53.596;9.960;2023-07-29T14:16:16;2.33;;;1.60;;
14342;SDS011;7255;53.596;9.960;2023-07-29T14:18:43;1.42;;;1.33;;
14342;SDS011;7255;53.596;9.960;2023-07-29T14:21:09;1.92;;;1.52;;
14342;SDS011;7255;53.596;9.960;2023-07-29T14:23:35;1.90;;;1.40;;
14342;SDS011;7255;53.596;9.960;2023-07-29T14:26:02;1.60;;;1.50;;
14342;SDS011;7255;53.596;9.960;2023-07-29T14:28:29;1.95;;;1.42;;
14342;SDS011;7255;53.596;9.960;2023-07-29T14:30:55;0.10;;;0.10;;
14342;SDS011;7255;53.596;9.960;2023-07-29T14:33:22;0.20;;;0.20;;
14342;SDS011;7255;53.596;9.960;2023-07-29T14:35:48;4.25;;;1.50;;
14342;SDS011;7255;53.596;9.960;2023-07-29T14:38:14;1.48;;;1.33;;
14342;SDS011;7255;53.596;9.960;2023-07-29T14:40:41;1.77;;;1.50;;
14342;SDS011;7255;53.596;9.960;2023-07-29T14:43:07;1.50;;;1.40;;
14342;SDS011;7255;53.596;9.960;2023-07-29T14:45:35;1.50;;;1.40;;
14342;SDS011;7255;53.596;9.960;2023-07-29T14:48:01;2.40;;;1.40;;
14342;SDS011;7255;53.596;9.960;2023-07-29T14:50:28;2.08;;;1.30;;